createdAt,value
2022-10-19T00:01:27.759Z,16.20
2022-10-19T00:04:03.618Z,16.10
2022-10-19T00:06:36.621Z,16.20
2022-10-19T00:09:14.291Z,16.10
2022-10-19T00:11:49.558Z,16.10
2022-10-19T00:14:21.863Z,16.10
2022-10-19T00:16:52.953Z,16.00
2022-10-19T00:19:24.664Z,16.00
2022-10-19T00:21:52.010Z,16.00
2022-10-19T00:24:22.273Z,16.00
2022-10-19T00:26:51.443Z,16.00
2022-10-19T00:29:23.428Z,16.00
2022-10-19T00:31:53.222Z,16.00
2022-10-19T00:34:22.322Z,15.90
2022-10-19T00:36:49.140Z,15.90
2022-10-19T00:39:18.539Z,15.90
2022-10-19T00:41:49.106Z,15.90
2022-10-19T00:44:15.846Z,15.90
2022-10-19T00:46:45.880Z,15.80
2022-10-19T00:49:24.966Z,15.80
2022-10-19T00:51:58.132Z,15.80
2022-10-19T00:54:30.483Z,15.80
2022-10-19T00:56:58.770Z,15.70
2022-10-19T00:59:28.355Z,15.70
2022-10-19T01:02:05.758Z,15.70
2022-10-19T01:04:38.136Z,15.70
2022-10-19T01:07:08.508Z,15.60
2022-10-19T01:09:37.591Z,15.60
2022-10-19T01:12:26.690Z,15.60
2022-10-19T01:15:20.016Z,15.50
2022-10-19T01:18:19.310Z,15.60
2022-10-19T01:21:14.570Z,15.50
2022-10-19T01:24:17.858Z,15.50
2022-10-19T01:27:24.296Z,15.50
2022-10-19T01:30:13.705Z,15.50
2022-10-19T01:33:31.550Z,15.50
2022-10-19T01:36:16.408Z,15.40
2022-10-19T01:39:07.816Z,15.40
2022-10-19T01:41:46.287Z,15.40
2022-10-19T01:44:31.121Z,15.40
2022-10-19T01:47:10.899Z,15.40
2022-10-19T01:49:53.191Z,15.40
2022-10-19T01:52:23.349Z,15.40
2022-10-19T01:54:58.293Z,15.40
2022-10-19T01:57:35.711Z,15.30
2022-10-19T02:00:09.190Z,15.30
2022-10-19T02:02:44.705Z,15.30
2022-10-19T02:05:17.408Z,15.30
2022-10-19T02:07:50.690Z,15.20
2022-10-19T02:10:21.434Z,15.20
2022-10-19T02:12:49.689Z,15.20
2022-10-19T02:15:22.954Z,15.20
2022-10-19T02:17:57.246Z,15.10
2022-10-19T02:20:30.683Z,15.10
2022-10-19T02:22:57.467Z,15.10
2022-10-19T02:25:27.326Z,15.10
2022-10-19T02:27:54.221Z,15.00
2022-10-19T02:30:23.705Z,15.00
2022-10-19T02:32:51.657Z,15.00
2022-10-19T02:35:19.017Z,15.00
2022-10-19T02:37:51.096Z,15.00
2022-10-19T02:40:18.326Z,15.00
2022-10-19T02:43:09.478Z,14.90
2022-10-19T02:45:50.881Z,14.90
2022-10-19T02:48:24.607Z,14.90
2022-10-19T02:50:52.003Z,14.90
2022-10-19T02:53:21.107Z,14.90
2022-10-19T02:55:53.975Z,14.90
2022-10-19T02:58:25.300Z,14.90
2022-10-19T03:00:54.033Z,15.00
2022-10-19T03:03:20.745Z,15.00
2022-10-19T03:05:47.436Z,15.00
2022-10-19T03:08:19.376Z,15.00
2022-10-19T03:10:46.326Z,15.00
2022-10-19T03:13:13.034Z,15.00
2022-10-19T03:15:42.234Z,15.00
2022-10-19T03:18:08.990Z,15.00
2022-10-19T03:20:37.905Z,15.10
2022-10-19T03:23:04.648Z,15.00
2022-10-19T03:25:38.336Z,15.00
2022-10-19T03:28:05.159Z,15.10
2022-10-19T03:30:31.830Z,15.10
2022-10-19T03:32:58.511Z,15.10
2022-10-19T03:35:25.335Z,15.10
2022-10-19T03:37:54.537Z,15.10
2022-10-19T03:40:23.241Z,15.10
2022-10-19T03:42:52.079Z,15.10
2022-10-19T03:45:21.976Z,15.10
2022-10-19T03:47:56.543Z,15.10
2022-10-19T03:50:25.884Z,15.10
2022-10-19T03:52:52.595Z,15.00
2022-10-19T03:55:21.962Z,15.00
2022-10-19T03:57:50.775Z,15.00
2022-10-19T04:00:17.506Z,15.00
2022-10-19T04:02:44.263Z,15.00
2022-10-19T04:05:10.936Z,14.90
2022-10-19T04:07:39.991Z,14.90
2022-10-19T04:10:09.536Z,14.90
2022-10-19T04:12:41.237Z,14.90
2022-10-19T04:15:08.784Z,14.80
2022-10-19T04:17:38.170Z,14.80
2022-10-19T04:20:08.642Z,14.80
2022-10-19T04:22:40.303Z,14.80
2022-10-19T04:25:12.246Z,14.80
2022-10-19T04:27:41.292Z,14.80
2022-10-19T04:30:13.180Z,14.80
2022-10-19T04:32:42.375Z,14.80
2022-10-19T04:35:09.282Z,14.80
2022-10-19T04:37:38.061Z,14.80
2022-10-19T04:40:12.832Z,14.80
2022-10-19T04:42:44.260Z,14.80
2022-10-19T04:45:11.479Z,14.80
2022-10-19T04:47:40.231Z,14.80
2022-10-19T04:50:14.306Z,14.90
2022-10-19T04:52:43.252Z,14.80
2022-10-19T04:55:12.237Z,14.90
2022-10-19T04:57:38.931Z,14.80
2022-10-19T05:00:14.639Z,14.80
2022-10-19T05:02:45.977Z,14.90
2022-10-19T05:05:14.356Z,14.90
2022-10-19T05:07:43.547Z,14.80
2022-10-19T05:10:11.335Z,14.80
2022-10-19T05:12:40.569Z,14.80
2022-10-19T05:15:10.411Z,14.90
2022-10-19T05:17:39.428Z,14.80
2022-10-19T05:20:07.056Z,14.90
2022-10-19T05:22:36.328Z,14.90
2022-10-19T05:25:05.686Z,14.90
2022-10-19T05:27:34.916Z,14.90
2022-10-19T05:30:06.348Z,14.80
2022-10-19T05:32:35.408Z,14.80
2022-10-19T05:35:02.167Z,14.80
2022-10-19T05:37:31.645Z,14.80
2022-10-19T05:40:01.100Z,14.80
2022-10-19T05:42:32.249Z,14.80
2022-10-19T05:44:58.923Z,14.80
2022-10-19T05:47:28.648Z,14.70
2022-10-19T05:49:59.879Z,14.70
2022-10-19T05:52:29.596Z,14.70
2022-10-19T05:54:58.599Z,14.70
2022-10-19T05:57:31.518Z,14.70
2022-10-19T05:59:58.595Z,14.70
2022-10-19T06:02:25.300Z,14.70
2022-10-19T06:04:54.496Z,14.70
2022-10-19T06:07:21.185Z,14.70
2022-10-19T06:09:50.215Z,14.70
2022-10-19T06:12:24.952Z,14.70
2022-10-19T06:14:52.061Z,14.70
2022-10-19T06:17:21.033Z,14.70
2022-10-19T06:19:52.838Z,14.70
2022-10-19T06:22:21.859Z,14.70
2022-10-19T06:24:48.555Z,14.70
2022-10-19T06:27:15.427Z,14.70
2022-10-19T06:29:44.510Z,14.70
2022-10-19T06:32:11.197Z,14.60
2022-10-19T06:34:40.270Z,14.60
2022-10-19T06:37:09.229Z,14.60
2022-10-19T06:39:40.638Z,14.60
2022-10-19T06:42:08.745Z,14.60
2022-10-19T06:44:40.606Z,14.50
2022-10-19T06:47:11.971Z,14.50
2022-10-19T06:49:40.715Z,14.50
2022-10-19T06:52:07.597Z,14.50
2022-10-19T06:54:38.763Z,14.50
2022-10-19T06:57:10.138Z,14.50
2022-10-19T06:59:41.396Z,14.50
2022-10-19T07:02:12.190Z,14.50
2022-10-19T07:04:41.501Z,14.50
2022-10-19T07:07:10.640Z,14.50
2022-10-19T07:09:37.529Z,14.50
2022-10-19T07:12:06.846Z,14.50
2022-10-19T07:14:38.608Z,14.50
2022-10-19T07:17:13.528Z,14.50
2022-10-19T07:19:42.532Z,14.50
2022-10-19T07:22:15.525Z,14.50
2022-10-19T07:24:50.516Z,14.40
2022-10-19T07:27:17.307Z,14.40
2022-10-19T07:29:44.404Z,14.40
2022-10-19T07:32:13.241Z,14.30
2022-10-19T07:34:39.966Z,14.30
2022-10-19T07:37:06.666Z,14.30
2022-10-19T07:39:33.426Z,14.20
2022-10-19T07:42:00.169Z,14.20
2022-10-19T07:44:27.191Z,14.20
2022-10-19T07:46:56.343Z,14.20
2022-10-19T07:49:25.583Z,14.20
2022-10-19T07:51:55.951Z,14.20
2022-10-19T07:54:27.234Z,14.10
2022-10-19T07:56:58.633Z,14.10
2022-10-19T07:59:25.430Z,14.10
2022-10-19T08:01:57.205Z,14.00
2022-10-19T08:07:11.263Z,14.10
2022-10-19T08:09:52.821Z,14.10
2022-10-19T08:12:22.852Z,14.10
2022-10-19T08:14:49.553Z,14.10
2022-10-19T08:17:18.943Z,14.10
2022-10-19T08:19:50.371Z,14.10
2022-10-19T08:22:22.293Z,14.10
2022-10-19T08:24:51.672Z,14.00
2022-10-19T08:27:20.503Z,14.10
2022-10-19T08:29:52.383Z,14.10
2022-10-19T08:32:21.708Z,14.00
2022-10-19T08:34:48.760Z,14.00
2022-10-19T08:37:39.612Z,14.10
2022-10-19T08:40:05.073Z,14.20
2022-10-19T08:42:57.530Z,14.20
2022-10-19T08:45:42.963Z,14.30
2022-10-19T08:48:37.988Z,14.40
2022-10-19T08:51:07.933Z,14.50
2022-10-19T08:53:52.352Z,14.60
2022-10-19T08:56:45.879Z,14.70
2022-10-19T08:59:33.357Z,14.70
2022-10-19T09:02:13.652Z,14.70
2022-10-19T09:04:49.181Z,14.70
2022-10-19T09:07:34.409Z,14.70
2022-10-19T09:10:16.911Z,14.70
2022-10-19T09:13:01.474Z,14.70
2022-10-19T09:15:50.530Z,14.80
2022-10-19T09:18:28.702Z,14.80
2022-10-19T09:21:06.898Z,14.80
2022-10-19T09:23:55.164Z,14.80
2022-10-19T09:26:30.963Z,14.90
2022-10-19T09:29:11.836Z,14.90
2022-10-19T09:31:42.656Z,14.90
2022-10-19T09:34:24.573Z,14.90
2022-10-19T09:36:57.216Z,15.00
2022-10-19T09:39:29.449Z,15.00
2022-10-19T09:42:23.494Z,15.10
2022-10-19T09:44:52.470Z,15.20
2022-10-19T09:47:40.747Z,15.30
2022-10-19T09:50:23.286Z,15.40
2022-10-19T09:52:52.459Z,15.60
2022-10-19T09:58:32.871Z,16.20
2022-10-19T10:01:04.864Z,16.60
2022-10-19T10:03:40.375Z,16.90
2022-10-19T10:06:17.017Z,17.10
2022-10-19T10:08:59.002Z,17.20
2022-10-19T10:11:31.763Z,17.40
2022-10-19T10:14:09.119Z,17.60
2022-10-19T10:16:44.099Z,17.80
2022-10-19T10:19:18.981Z,18.10
2022-10-19T10:21:57.675Z,18.30
2022-10-19T10:24:31.138Z,18.60
2022-10-19T10:27:05.969Z,19.00
2022-10-19T10:29:39.212Z,19.40
2022-10-19T10:32:21.487Z,19.70
2022-10-19T10:35:02.541Z,20.10
2022-10-19T10:37:46.718Z,20.40
2022-10-19T10:40:32.216Z,20.70
2022-10-19T10:43:13.895Z,21.00
2022-10-19T10:45:56.481Z,21.10
2022-10-19T10:48:36.121Z,21.10
2022-10-19T10:51:31.511Z,21.10
2022-10-19T10:54:32.417Z,21.10
2022-10-19T10:57:18.457Z,21.10
2022-10-19T10:59:53.424Z,21.00
2022-10-19T11:03:00.729Z,21.00
2022-10-19T11:05:49.710Z,20.90
2022-10-19T11:08:43.937Z,20.80
2022-10-19T11:11:22.354Z,20.70
2022-10-19T11:14:00.624Z,20.60
2022-10-19T11:16:36.759Z,20.50
2022-10-19T11:19:21.788Z,20.40
2022-10-19T11:22:23.609Z,20.30
2022-10-19T11:25:52.175Z,20.20
2022-10-19T11:29:03.789Z,20.10
2022-10-19T11:31:33.304Z,20.00
2022-10-19T11:34:07.624Z,20.00
2022-10-19T11:37:04.787Z,19.90
2022-10-19T11:40:30.549Z,19.80
2022-10-19T11:43:24.870Z,19.70
2022-10-19T11:46:09.407Z,19.70
2022-10-19T11:49:03.214Z,19.70
2022-10-19T11:51:51.854Z,19.60
2022-10-19T11:54:26.882Z,19.60
2022-10-19T11:57:25.385Z,19.60
2022-10-19T12:00:15.158Z,19.60
2022-10-19T12:03:50.969Z,19.60
2022-10-19T12:06:50.692Z,19.60
2022-10-19T12:09:56.147Z,19.60
2022-10-19T12:12:36.114Z,19.60
2022-10-19T12:15:19.537Z,19.60
2022-10-19T12:17:51.715Z,19.60
2022-10-19T12:20:46.864Z,19.60
2022-10-19T12:23:33.122Z,19.50
2022-10-19T12:26:07.625Z,19.50
2022-10-19T12:28:49.705Z,19.60
2022-10-19T12:31:23.651Z,19.50
2022-10-19T12:33:56.435Z,19.60
2022-10-19T12:36:34.896Z,19.60
2022-10-19T12:39:21.551Z,19.60
2022-10-19T12:42:33.091Z,19.60
2022-10-19T12:45:25.006Z,19.60
2022-10-19T12:48:22.573Z,19.60
2022-10-19T12:50:49.276Z,19.60
2022-10-19T12:53:43.052Z,19.60
2022-10-19T12:56:11.908Z,19.60
2022-10-19T12:58:48.137Z,19.60
2022-10-19T13:01:44.267Z,19.60
2022-10-19T13:04:20.999Z,19.60
2022-10-19T13:06:57.019Z,19.60
2022-10-19T13:09:34.986Z,19.60
2022-10-19T13:12:16.447Z,19.60
2022-10-19T13:14:52.703Z,19.60
2022-10-19T13:17:36.920Z,19.70
2022-10-19T13:20:16.198Z,19.70
2022-10-19T13:23:13.525Z,19.70
2022-10-19T13:25:43.459Z,19.70
2022-10-19T13:28:10.109Z,19.70
2022-10-19T13:30:39.438Z,19.70
2022-10-19T13:33:34.872Z,19.70
2022-10-19T13:36:02.752Z,19.70
2022-10-19T13:39:08.770Z,19.60
2022-10-19T13:41:38.303Z,19.60
2022-10-19T13:44:16.939Z,19.60
2022-10-19T13:47:20.203Z,19.60
2022-10-19T13:50:22.422Z,19.60
2022-10-19T13:53:06.341Z,19.60
2022-10-19T13:56:07.655Z,19.70
2022-10-19T13:59:16.250Z,19.70
2022-10-19T14:02:29.827Z,19.70
2022-10-19T14:05:14.602Z,19.70
2022-10-19T14:08:26.766Z,19.80
2022-10-19T14:11:14.616Z,19.80
2022-10-19T14:13:43.856Z,19.80
2022-10-19T14:16:22.066Z,19.80
2022-10-19T14:19:01.722Z,19.70
2022-10-19T14:21:36.742Z,19.70
2022-10-19T14:24:19.937Z,19.70
2022-10-19T14:26:51.399Z,19.60
2022-10-19T14:29:22.733Z,19.60
2022-10-19T14:31:49.654Z,19.50
2022-10-19T14:34:18.920Z,19.50
2022-10-19T14:36:53.326Z,19.50
2022-10-19T14:39:33.363Z,19.40
2022-10-19T14:42:09.754Z,19.40
2022-10-19T14:44:44.109Z,19.40
2022-10-19T14:47:30.375Z,19.40
2022-10-19T14:49:57.227Z,19.40
2022-10-19T14:52:31.698Z,19.40
2022-10-19T14:55:11.595Z,19.40
2022-10-19T14:57:42.938Z,19.40
2022-10-19T15:00:23.053Z,19.40
2022-10-19T15:03:02.883Z,19.40
2022-10-19T15:05:36.587Z,19.40
2022-10-19T15:08:22.378Z,19.40
2022-10-19T15:10:49.961Z,19.40
2022-10-19T15:13:24.083Z,19.40
2022-10-19T15:15:56.265Z,19.40
2022-10-19T15:18:48.141Z,19.30
2022-10-19T15:21:21.553Z,19.30
2022-10-19T15:23:55.429Z,19.30
2022-10-19T15:26:25.431Z,19.20
2022-10-19T15:28:54.816Z,19.20
2022-10-19T15:31:29.963Z,19.20
2022-10-19T15:34:01.083Z,19.10
2022-10-19T15:36:34.471Z,19.00
2022-10-19T15:39:32.947Z,19.00
2022-10-19T15:42:44.297Z,18.90
2022-10-19T15:45:30.000Z,18.80
2022-10-19T15:48:15.585Z,18.70
2022-10-19T15:50:52.654Z,18.70
2022-10-19T15:53:27.684Z,18.60
2022-10-19T15:56:00.565Z,18.60
2022-10-19T15:58:32.150Z,18.50
2022-10-19T16:01:01.879Z,18.40
2022-10-19T16:03:30.609Z,18.40
2022-10-19T16:06:00.057Z,18.30
2022-10-19T16:08:26.814Z,18.30
2022-10-19T16:10:55.826Z,18.20
2022-10-19T16:13:22.700Z,18.10
2022-10-19T16:16:10.098Z,18.10
2022-10-19T16:18:38.305Z,18.00
2022-10-19T16:21:05.556Z,17.90
2022-10-19T16:23:37.746Z,17.90
2022-10-19T16:26:16.572Z,17.80
2022-10-19T16:28:44.027Z,17.70
2022-10-19T16:31:11.465Z,17.70
2022-10-19T16:33:38.349Z,17.60
2022-10-19T16:36:07.507Z,17.50
2022-10-19T16:38:40.399Z,17.50
2022-10-19T16:41:10.174Z,17.40
2022-10-19T16:43:37.814Z,17.40
2022-10-19T16:46:09.987Z,17.40
2022-10-19T16:48:38.140Z,17.30
2022-10-19T16:51:10.193Z,17.30
2022-10-19T16:53:41.687Z,17.20
2022-10-19T16:56:13.110Z,17.20
2022-10-19T16:58:43.071Z,17.20
2022-10-19T17:01:15.997Z,17.10
2022-10-19T17:03:49.850Z,17.10
2022-10-19T17:06:18.255Z,17.00
2022-10-19T17:11:38.167Z,17.00
2022-10-19T17:14:10.932Z,16.90
2022-10-19T17:16:41.748Z,16.80
2022-10-19T17:19:10.685Z,16.80
2022-10-19T17:21:42.125Z,16.70
2022-10-19T17:24:22.265Z,16.70
2022-10-19T17:26:51.817Z,16.60
2022-10-19T17:29:22.954Z,16.50
2022-10-19T17:31:50.675Z,16.40
2022-10-19T17:34:18.135Z,16.30
2022-10-19T17:36:46.704Z,16.30
2022-10-19T17:39:27.253Z,16.20
2022-10-19T17:42:04.817Z,16.20
2022-10-19T17:44:33.825Z,16.10
2022-10-19T17:47:04.190Z,16.10
2022-10-19T17:49:30.983Z,16.00
2022-10-19T17:52:00.164Z,16.00
2022-10-19T17:54:27.064Z,15.90
2022-10-19T17:56:53.957Z,15.80
2022-10-19T17:59:30.039Z,15.80
2022-10-19T18:02:08.951Z,15.70
2022-10-19T18:04:37.838Z,15.70
2022-10-19T18:07:04.608Z,15.60
2022-10-19T18:09:35.597Z,15.60
2022-10-19T18:12:04.966Z,15.60
2022-10-19T18:14:38.847Z,15.50
2022-10-19T18:17:06.247Z,15.40
2022-10-19T18:19:32.993Z,15.40
2022-10-19T18:21:59.839Z,15.40
2022-10-19T18:24:26.626Z,15.30
2022-10-19T18:26:56.039Z,15.20
2022-10-19T18:29:28.691Z,15.20
2022-10-19T18:31:58.172Z,15.20
2022-10-19T18:34:30.840Z,15.10
2022-10-19T18:36:59.623Z,15.10
2022-10-19T18:39:28.729Z,15.10
2022-10-19T18:41:57.663Z,15.00
2022-10-19T18:44:29.502Z,15.00
2022-10-19T18:47:00.426Z,15.00
2022-10-19T18:49:27.265Z,14.90
2022-10-19T18:51:56.604Z,14.90
2022-10-19T18:54:26.349Z,14.90
2022-10-19T18:56:53.602Z,14.80
2022-10-19T18:59:23.079Z,14.80
2022-10-19T19:01:54.714Z,14.70
2022-10-19T19:04:21.463Z,14.70
2022-10-19T19:06:55.355Z,14.70
2022-10-19T19:09:24.105Z,14.70
2022-10-19T19:11:58.109Z,14.70
2022-10-19T19:14:26.295Z,14.70
2022-10-19T19:16:55.175Z,14.70
2022-10-19T19:19:24.318Z,14.60
2022-10-19T19:21:53.757Z,14.60
2022-10-19T19:24:22.382Z,14.60
2022-10-19T19:26:54.062Z,14.60
2022-10-19T19:29:22.099Z,14.60
2022-10-19T19:31:51.566Z,14.60
2022-10-19T19:34:22.546Z,14.50
2022-10-19T19:36:51.694Z,14.50
2022-10-19T19:39:23.358Z,14.60
2022-10-19T19:41:52.640Z,14.50
2022-10-19T19:44:24.888Z,14.50
2022-10-19T19:46:51.633Z,14.50
2022-10-19T19:49:18.409Z,14.50
2022-10-19T19:51:45.233Z,14.40
2022-10-19T19:54:14.912Z,14.40
2022-10-19T19:56:44.847Z,14.40
2022-10-19T19:59:13.073Z,14.40
2022-10-19T20:01:46.762Z,14.40
2022-10-19T20:04:16.051Z,14.30
2022-10-19T20:06:44.422Z,14.40
2022-10-19T20:09:13.696Z,14.30
2022-10-19T20:11:42.578Z,14.30
2022-10-19T20:14:14.957Z,14.30
2022-10-19T20:16:41.712Z,14.30
2022-10-19T20:19:14.640Z,14.30
2022-10-19T20:21:44.551Z,14.20
2022-10-19T20:24:13.508Z,14.20
2022-10-19T20:26:44.886Z,14.20
2022-10-19T20:29:11.649Z,14.20
2022-10-19T20:31:40.260Z,14.20
2022-10-19T20:34:14.527Z,14.20
2022-10-19T20:36:45.743Z,14.10
2022-10-19T20:39:16.937Z,14.10
2022-10-19T20:41:43.687Z,14.10
2022-10-19T20:44:15.255Z,14.10
2022-10-19T20:46:44.272Z,14.10
2022-10-19T20:49:12.484Z,14.10
2022-10-19T20:51:44.441Z,14.10
2022-10-19T20:54:12.564Z,14.10
2022-10-19T20:56:41.973Z,14.10
2022-10-19T20:59:26.591Z,14.00
2022-10-19T21:01:57.121Z,14.00
2022-10-19T21:04:27.558Z,13.90
2022-10-19T21:06:57.133Z,14.00
2022-10-19T21:09:26.419Z,14.00
2022-10-19T21:11:58.888Z,14.00
2022-10-19T21:14:29.310Z,14.00
2022-10-19T21:16:57.829Z,13.90
2022-10-19T21:19:27.755Z,13.90
2022-10-19T21:22:03.563Z,13.90
2022-10-19T21:24:39.345Z,13.90
2022-10-19T21:27:14.051Z,13.80
2022-10-19T21:29:40.802Z,13.80
2022-10-19T21:32:09.832Z,13.80
2022-10-19T21:34:36.515Z,13.80
2022-10-19T21:37:08.300Z,13.80
2022-10-19T21:39:39.335Z,13.80
2022-10-19T21:42:08.417Z,13.70
2022-10-19T21:44:35.092Z,13.70
2022-10-19T21:47:04.506Z,13.70
2022-10-19T21:49:31.245Z,13.60
2022-10-19T21:51:57.993Z,13.70
2022-10-19T21:54:30.037Z,13.70
2022-10-19T21:57:03.871Z,13.60
2022-10-19T21:59:30.575Z,13.60
2022-10-19T22:02:00.001Z,13.60
2022-10-19T22:04:26.974Z,13.60
2022-10-19T22:06:59.385Z,13.60
2022-10-19T22:09:26.123Z,13.50
2022-10-19T22:11:55.429Z,13.50
2022-10-19T22:14:24.362Z,13.50
2022-10-19T22:16:53.622Z,13.50
2022-10-19T22:19:20.396Z,13.50
2022-10-19T22:21:49.733Z,13.50
2022-10-19T22:24:18.539Z,13.40
2022-10-19T22:26:50.840Z,13.40
2022-10-19T22:29:19.998Z,13.40
2022-10-19T22:31:49.215Z,13.40
2022-10-19T22:34:18.015Z,13.30
2022-10-19T22:36:49.781Z,13.30
2022-10-19T22:39:19.481Z,13.30
2022-10-19T22:41:46.146Z,13.30
2022-10-19T22:44:15.114Z,13.30
2022-10-19T22:46:44.078Z,13.30
2022-10-19T22:49:10.959Z,13.20
2022-10-19T22:51:37.708Z,13.20
2022-10-19T22:54:07.224Z,13.20
2022-10-19T22:56:34.242Z,13.20
2022-10-19T22:59:03.850Z,13.10
2022-10-19T23:01:33.714Z,13.10
2022-10-19T23:04:00.534Z,13.10
2022-10-19T23:06:34.864Z,13.00
2022-10-19T23:09:01.641Z,13.00
2022-10-19T23:11:32.783Z,13.00
2022-10-19T23:14:02.544Z,13.00
2022-10-19T23:16:31.545Z,13.00
2022-10-19T23:18:58.483Z,12.90
2022-10-19T23:21:25.341Z,12.90
2022-10-19T23:23:52.044Z,12.90
2022-10-19T23:26:22.157Z,12.90
2022-10-19T23:28:50.396Z,12.90
2022-10-19T23:31:26.614Z,12.90
2022-10-19T23:33:56.505Z,12.80
2022-10-19T23:36:28.814Z,12.80
2022-10-19T23:38:57.744Z,12.80
2022-10-19T23:41:24.892Z,12.70
2022-10-19T23:43:52.074Z,12.70
2022-10-19T23:46:18.863Z,12.70
2022-10-19T23:48:45.689Z,12.70
2022-10-19T23:51:23.227Z,12.60
2022-10-19T23:53:53.788Z,12.60
2022-10-19T23:56:27.974Z,12.60
2022-10-19T23:58:55.965Z,12.60
